sensor_id;sensor_type;location;lat;lon;timestamp;P1;durP1;ratioP1;P2;durP2;ratioP2
32096;SDS011;18610;49.916;8.284;2023-06-22T00:01:59;8.90;;;5.53;;
32096;SDS011;18610;49.916;8.284;2023-06-22T00:04:26;8.38;;;5.70;;
32096;SDS011;18610;49.916;8.284;2023-06-22T00:06:53;6.28;;;5.68;;
32096;SDS011;18610;49.916;8.284;2023-06-22T00:09:19;8.80;;;6.43;;
32096;SDS011;18610;49.916;8.284;2023-06-22T00:11:46;9.88;;;6.10;;
32096;SDS011;18610;49.916;8.284;2023-06-22T00:14:13;7.47;;;6.60;;
32096;SDS011;18610;49.916;8.284;2023-06-22T00:16:41;7.60;;;6.38;;
32096;SDS011;18610;49.916;8.284;2023-06-22T00:19:08;10.70;;;6.50;;
32096;SDS011;18610;49.916;8.284;2023-06-22T00:21:36;12.40;;;5.78;;
32096;SDS011;18610;49.916;8.284;2023-06-22T00:24:03;7.15;;;6.28;;
32096;SDS011;18610;49.916;8.284;2023-06-22T00:26:31;10.30;;;6.75;;
32096;SDS011;18610;49.916;8.284;2023-06-22T00:28:58;7.90;;;6.75;;
32096;SDS011;18610;49.916;8.284;2023-06-22T00:31:25;9.63;;;6.60;;
32096;SDS011;18610;49.916;8.284;2023-06-22T00:33:53;9.68;;;6.47;;
32096;SDS011;18610;49.916;8.284;2023-06-22T00:36:19;8.77;;;6.85;;
32096;SDS011;18610;49.916;8.284;2023-06-22T00:38:46;9.57;;;6.70;;
32096;SDS011;18610;49.916;8.284;2023-06-22T00:41:15;7.90;;;6.78;;
32096;SDS011;18610;49.916;8.284;2023-06-22T00:43:42;11.40;;;6.93;;
32096;SDS011;18610;49.916;8.284;2023-06-22T00:46:09;17.42;;;7.28;;
32096;SDS011;18610;49.916;8.284;2023-06-22T00:48:36;9.35;;;6.75;;
32096;SDS011;18610;49.916;8.284;2023-06-22T00:51:04;9.10;;;7.28;;
32096;SDS011;18610;49.916;8.284;2023-06-22T00:53:31;8.93;;;6.45;;
32096;SDS011;18610;49.916;8.284;2023-06-22T00:56:00;12.45;;;7.95;;
32096;SDS011;18610;49.916;8.284;2023-06-22T00:58:28;16.52;;;8.18;;
32096;SDS011;18610;49.916;8.284;2023-06-22T01:00:55;17.33;;;8.60;;
32096;SDS011;18610;49.916;8.284;2023-06-22T01:03:22;10.52;;;8.20;;
32096;SDS011;18610;49.916;8.284;2023-06-22T01:05:49;12.90;;;7.93;;
32096;SDS011;18610;49.916;8.284;2023-06-22T01:08:22;9.68;;;7.90;;
32096;SDS011;18610;49.916;8.284;2023-06-22T01:10:57;12.80;;;8.63;;
32096;SDS011;18610;49.916;8.284;2023-06-22T01:13:32;12.52;;;7.65;;
32096;SDS011;18610;49.916;8.284;2023-06-22T01:18:32;20.17;;;9.25;;
32096;SDS011;18610;49.916;8.284;2023-06-22T01:21:02;16.52;;;8.88;;
32096;SDS011;18610;49.916;8.284;2023-06-22T01:23:40;14.40;;;9.38;;
32096;SDS011;18610;49.916;8.284;2023-06-22T01:26:25;17.33;;;9.00;;
32096;SDS011;18610;49.916;8.284;2023-06-22T01:29:02;10.80;;;8.85;;
32096;SDS011;18610;49.916;8.284;2023-06-22T01:31:31;10.77;;;8.75;;
32096;SDS011;18610;49.916;8.284;2023-06-22T01:34:00;17.20;;;8.23;;
32096;SDS011;18610;49.916;8.284;2023-06-22T01:36:29;13.38;;;8.18;;
32096;SDS011;18610;49.916;8.284;2023-06-22T01:38:58;14.32;;;10.05;;
32096;SDS011;18610;49.916;8.284;2023-06-22T01:41:26;12.40;;;9.32;;
32096;SDS011;18610;49.916;8.284;2023-06-22T01:43:55;14.70;;;9.30;;
32096;SDS011;18610;49.916;8.284;2023-06-22T01:46:23;12.20;;;9.40;;
32096;SDS011;18610;49.916;8.284;2023-06-22T01:48:50;13.43;;;9.35;;
32096;SDS011;18610;49.916;8.284;2023-06-22T01:51:18;11.75;;;9.35;;
32096;SDS011;18610;49.916;8.284;2023-06-22T01:53:45;10.32;;;8.77;;
32096;SDS011;18610;49.916;8.284;2023-06-22T01:56:13;15.30;;;9.93;;
32096;SDS011;18610;49.916;8.284;2023-06-22T01:58:44;14.77;;;10.50;;
32096;SDS011;18610;49.916;8.284;2023-06-22T02:01:17;11.02;;;9.88;;
32096;SDS011;18610;49.916;8.284;2023-06-22T02:03:51;17.92;;;10.45;;
32096;SDS011;18610;49.916;8.284;2023-06-22T02:06:29;14.77;;;10.95;;
32096;SDS011;18610;49.916;8.284;2023-06-22T02:09:02;18.45;;;11.05;;
32096;SDS011;18610;49.916;8.284;2023-06-22T02:11:34;13.70;;;9.93;;
32096;SDS011;18610;49.916;8.284;2023-06-22T02:14:02;13.55;;;9.70;;
32096;SDS011;18610;49.916;8.284;2023-06-22T02:16:30;13.65;;;9.48;;
32096;SDS011;18610;49.916;8.284;2023-06-22T02:19:00;18.52;;;10.00;;
32096;SDS011;18610;49.916;8.284;2023-06-22T02:21:28;12.18;;;9.93;;
32096;SDS011;18610;49.916;8.284;2023-06-22T02:23:55;13.38;;;11.07;;
32096;SDS011;18610;49.916;8.284;2023-06-22T02:26:22;12.38;;;10.00;;
32096;SDS011;18610;49.916;8.284;2023-06-22T02:28:49;17.25;;;11.40;;
32096;SDS011;18610;49.916;8.284;2023-06-22T02:31:16;15.20;;;10.70;;
32096;SDS011;18610;49.916;8.284;2023-06-22T02:33:43;14.52;;;11.48;;
32096;SDS011;18610;49.916;8.284;2023-06-22T02:36:11;14.80;;;11.50;;
32096;SDS011;18610;49.916;8.284;2023-06-22T02:38:38;17.88;;;11.38;;
32096;SDS011;18610;49.916;8.284;2023-06-22T02:41:05;15.50;;;10.88;;
32096;SDS011;18610;49.916;8.284;2023-06-22T02:43:32;15.52;;;10.25;;
32096;SDS011;18610;49.916;8.284;2023-06-22T02:45:58;15.20;;;11.55;;
32096;SDS011;18610;49.916;8.284;2023-06-22T02:48:25;16.55;;;10.73;;
32096;SDS011;18610;49.916;8.284;2023-06-22T02:50:52;13.65;;;10.07;;
32096;SDS011;18610;49.916;8.284;2023-06-22T02:53:21;11.52;;;9.10;;
32096;SDS011;18610;49.916;8.284;2023-06-22T02:55:47;11.35;;;8.30;;
32096;SDS011;18610;49.916;8.284;2023-06-22T02:58:14;12.02;;;9.75;;
32096;SDS011;18610;49.916;8.284;2023-06-22T03:00:41;17.40;;;10.00;;
32096;SDS011;18610;49.916;8.284;2023-06-22T03:03:08;21.38;;;10.52;;
32096;SDS011;18610;49.916;8.284;2023-06-22T03:05:35;14.35;;;10.98;;
32096;SDS011;18610;49.916;8.284;2023-06-22T03:08:01;19.27;;;9.70;;
32096;SDS011;18610;49.916;8.284;2023-06-22T03:10:29;12.32;;;9.85;;
32096;SDS011;18610;49.916;8.284;2023-06-22T03:12:56;10.57;;;9.43;;
32096;SDS011;18610;49.916;8.284;2023-06-22T03:15:23;11.38;;;9.57;;
32096;SDS011;18610;49.916;8.284;2023-06-22T03:17:51;14.35;;;10.43;;
32096;SDS011;18610;49.916;8.284;2023-06-22T03:20:17;16.60;;;9.82;;
32096;SDS011;18610;49.916;8.284;2023-06-22T03:22:44;12.85;;;9.80;;
32096;SDS011;18610;49.916;8.284;2023-06-22T03:25:11;13.00;;;10.45;;
32096;SDS011;18610;49.916;8.284;2023-06-22T03:27:39;16.38;;;11.18;;
32096;SDS011;18610;49.916;8.284;2023-06-22T03:30:07;16.15;;;10.82;;
32096;SDS011;18610;49.916;8.284;2023-06-22T03:32:35;17.45;;;11.40;;
32096;SDS011;18610;49.916;8.284;2023-06-22T03:35:02;15.63;;;10.77;;
32096;SDS011;18610;49.916;8.284;2023-06-22T03:37:29;15.13;;;10.77;;
32096;SDS011;18610;49.916;8.284;2023-06-22T03:39:55;11.73;;;10.00;;
32096;SDS011;18610;49.916;8.284;2023-06-22T03:42:22;13.40;;;9.82;;
32096;SDS011;18610;49.916;8.284;2023-06-22T03:44:50;13.95;;;10.77;;
32096;SDS011;18610;49.916;8.284;2023-06-22T03:47:17;12.73;;;10.98;;
32096;SDS011;18610;49.916;8.284;2023-06-22T03:49:44;13.00;;;10.85;;
32096;SDS011;18610;49.916;8.284;2023-06-22T03:52:11;16.30;;;10.32;;
32096;SDS011;18610;49.916;8.284;2023-06-22T03:54:37;16.75;;;11.20;;
32096;SDS011;18610;49.916;8.284;2023-06-22T03:57:04;13.73;;;10.38;;
32096;SDS011;18610;49.916;8.284;2023-06-22T03:59:31;17.17;;;10.77;;
32096;SDS011;18610;49.916;8.284;2023-06-22T04:01:59;13.40;;;9.90;;
32096;SDS011;18610;49.916;8.284;2023-06-22T04:04:26;16.98;;;12.65;;
32096;SDS011;18610;49.916;8.284;2023-06-22T04:06:53;17.10;;;11.73;;
32096;SDS011;18610;49.916;8.284;2023-06-22T04:09:20;13.52;;;11.02;;
32096;SDS011;18610;49.916;8.284;2023-06-22T04:11:47;15.25;;;11.25;;
32096;SDS011;18610;49.916;8.284;2023-06-22T04:14:14;16.45;;;11.48;;
32096;SDS011;18610;49.916;8.284;2023-06-22T04:16:40;16.08;;;11.05;;
32096;SDS011;18610;49.916;8.284;2023-06-22T04:19:08;13.70;;;11.15;;
32096;SDS011;18610;49.916;8.284;2023-06-22T04:21:41;11.40;;;10.27;;
32096;SDS011;18610;49.916;8.284;2023-06-22T04:24:07;11.13;;;9.93;;
32096;SDS011;18610;49.916;8.284;2023-06-22T04:26:34;14.95;;;12.23;;
32096;SDS011;18610;49.916;8.284;2023-06-22T04:29:02;17.65;;;11.15;;
32096;SDS011;18610;49.916;8.284;2023-06-22T04:31:30;15.38;;;10.65;;
32096;SDS011;18610;49.916;8.284;2023-06-22T04:34:01;14.90;;;10.73;;
32096;SDS011;18610;49.916;8.284;2023-06-22T04:36:32;15.45;;;10.82;;
32096;SDS011;18610;49.916;8.284;2023-06-22T04:39:02;16.05;;;10.95;;
32096;SDS011;18610;49.916;8.284;2023-06-22T04:41:30;15.55;;;10.27;;
32096;SDS011;18610;49.916;8.284;2023-06-22T04:44:07;15.98;;;12.38;;
32096;SDS011;18610;49.916;8.284;2023-06-22T04:46:35;12.77;;;10.52;;
32096;SDS011;18610;49.916;8.284;2023-06-22T04:49:03;15.45;;;11.93;;
32096;SDS011;18610;49.916;8.284;2023-06-22T04:51:38;15.63;;;13.13;;
32096;SDS011;18610;49.916;8.284;2023-06-22T04:54:08;14.43;;;10.93;;
32096;SDS011;18610;49.916;8.284;2023-06-22T04:56:36;13.30;;;11.77;;
32096;SDS011;18610;49.916;8.284;2023-06-22T04:59:05;15.48;;;11.75;;
32096;SDS011;18610;49.916;8.284;2023-06-22T05:01:32;15.50;;;11.55;;
32096;SDS011;18610;49.916;8.284;2023-06-22T05:04:00;13.57;;;11.05;;
32096;SDS011;18610;49.916;8.284;2023-06-22T05:06:27;14.02;;;11.63;;
32096;SDS011;18610;49.916;8.284;2023-06-22T05:08:56;12.20;;;10.82;;
32096;SDS011;18610;49.916;8.284;2023-06-22T05:11:23;16.17;;;12.75;;
32096;SDS011;18610;49.916;8.284;2023-06-22T05:13:50;19.55;;;11.93;;
32096;SDS011;18610;49.916;8.284;2023-06-22T05:16:17;18.00;;;11.82;;
32096;SDS011;18610;49.916;8.284;2023-06-22T05:18:49;15.55;;;11.70;;
32096;SDS011;18610;49.916;8.284;2023-06-22T05:21:17;14.45;;;11.50;;
32096;SDS011;18610;49.916;8.284;2023-06-22T05:23:44;12.95;;;10.95;;
32096;SDS011;18610;49.916;8.284;2023-06-22T05:26:12;15.02;;;11.00;;
32096;SDS011;18610;49.916;8.284;2023-06-22T05:28:38;15.65;;;10.95;;
32096;SDS011;18610;49.916;8.284;2023-06-22T05:31:05;21.35;;;12.07;;
32096;SDS011;18610;49.916;8.284;2023-06-22T05:33:32;14.23;;;11.23;;
32096;SDS011;18610;49.916;8.284;2023-06-22T05:35:58;15.52;;;11.93;;
32096;SDS011;18610;49.916;8.284;2023-06-22T05:38:25;16.05;;;10.55;;
32096;SDS011;18610;49.916;8.284;2023-06-22T05:40:52;14.10;;;11.45;;
32096;SDS011;18610;49.916;8.284;2023-06-22T05:43:20;12.65;;;11.10;;
32096;SDS011;18610;49.916;8.284;2023-06-22T05:45:47;18.05;;;12.38;;
32096;SDS011;18610;49.916;8.284;2023-06-22T05:48:13;13.27;;;10.38;;
32096;SDS011;18610;49.916;8.284;2023-06-22T05:50:40;11.65;;;9.50;;
32096;SDS011;18610;49.916;8.284;2023-06-22T05:53:07;11.68;;;10.48;;
32096;SDS011;18610;49.916;8.284;2023-06-22T05:55:33;11.30;;;10.10;;
32096;SDS011;18610;49.916;8.284;2023-06-22T05:58:00;14.95;;;9.55;;
32096;SDS011;18610;49.916;8.284;2023-06-22T06:00:29;13.90;;;10.35;;
32096;SDS011;18610;49.916;8.284;2023-06-22T06:02:56;15.52;;;11.07;;
32096;SDS011;18610;49.916;8.284;2023-06-22T06:07:54;12.88;;;10.38;;
32096;SDS011;18610;49.916;8.284;2023-06-22T06:10:21;20.10;;;12.43;;
32096;SDS011;18610;49.916;8.284;2023-06-22T06:12:48;17.50;;;11.40;;
32096;SDS011;18610;49.916;8.284;2023-06-22T06:15:15;13.32;;;10.70;;
32096;SDS011;18610;49.916;8.284;2023-06-22T06:17:46;17.30;;;12.77;;
32096;SDS011;18610;49.916;8.284;2023-06-22T06:20:13;14.40;;;10.73;;
32096;SDS011;18610;49.916;8.284;2023-06-22T06:22:40;17.88;;;10.77;;
32096;SDS011;18610;49.916;8.284;2023-06-22T06:25:08;11.23;;;10.02;;
32096;SDS011;18610;49.916;8.284;2023-06-22T06:27:41;13.73;;;11.32;;
32096;SDS011;18610;49.916;8.284;2023-06-22T06:30:08;11.77;;;9.52;;
32096;SDS011;18610;49.916;8.284;2023-06-22T06:32:36;16.38;;;10.82;;
32096;SDS011;18610;49.916;8.284;2023-06-22T06:35:06;14.07;;;11.05;;
32096;SDS011;18610;49.916;8.284;2023-06-22T06:37:35;10.88;;;9.18;;
32096;SDS011;18610;49.916;8.284;2023-06-22T06:40:03;14.10;;;10.20;;
32096;SDS011;18610;49.916;8.284;2023-06-22T06:42:33;13.43;;;9.45;;
32096;SDS011;18610;49.916;8.284;2023-06-22T06:44:59;15.65;;;10.85;;
32096;SDS011;18610;49.916;8.284;2023-06-22T06:47:26;11.45;;;8.90;;
32096;SDS011;18610;49.916;8.284;2023-06-22T06:49:53;10.23;;;8.68;;
32096;SDS011;18610;49.916;8.284;2023-06-22T06:52:21;11.80;;;8.88;;
32096;SDS011;18610;49.916;8.284;2023-06-22T06:54:48;9.60;;;8.35;;
32096;SDS011;18610;49.916;8.284;2023-06-22T06:57:16;12.32;;;8.73;;
32096;SDS011;18610;49.916;8.284;2023-06-22T06:59:43;15.32;;;9.57;;
32096;SDS011;18610;49.916;8.284;2023-06-22T07:02:10;12.93;;;9.20;;
32096;SDS011;18610;49.916;8.284;2023-06-22T07:04:37;14.00;;;9.32;;
32096;SDS011;18610;49.916;8.284;2023-06-22T07:07:04;12.48;;;8.75;;
32096;SDS011;18610;49.916;8.284;2023-06-22T07:09:32;11.52;;;9.18;;
32096;SDS011;18610;49.916;8.284;2023-06-22T07:11:59;16.85;;;9.82;;
32096;SDS011;18610;49.916;8.284;2023-06-22T07:14:26;14.85;;;10.27;;
32096;SDS011;18610;49.916;8.284;2023-06-22T07:16:53;14.73;;;10.45;;
32096;SDS011;18610;49.916;8.284;2023-06-22T07:19:24;11.77;;;9.48;;
32096;SDS011;18610;49.916;8.284;2023-06-22T07:24:18;13.38;;;9.32;;
32096;SDS011;18610;49.916;8.284;2023-06-22T07:26:47;14.43;;;9.25;;
32096;SDS011;18610;49.916;8.284;2023-06-22T07:29:15;14.70;;;10.10;;
32096;SDS011;18610;49.916;8.284;2023-06-22T07:31:42;14.88;;;9.25;;
32096;SDS011;18610;49.916;8.284;2023-06-22T07:34:09;17.73;;;9.65;;
32096;SDS011;18610;49.916;8.284;2023-06-22T07:36:36;15.30;;;9.30;;
32096;SDS011;18610;49.916;8.284;2023-06-22T07:39:04;14.27;;;9.45;;
32096;SDS011;18610;49.916;8.284;2023-06-22T07:41:31;15.98;;;8.75;;
32096;SDS011;18610;49.916;8.284;2023-06-22T07:43:59;14.25;;;8.68;;
32096;SDS011;18610;49.916;8.284;2023-06-22T07:46:26;12.70;;;8.93;;
32096;SDS011;18610;49.916;8.284;2023-06-22T07:48:55;15.50;;;9.60;;
32096;SDS011;18610;49.916;8.284;2023-06-22T07:51:21;13.70;;;9.65;;
32096;SDS011;18610;49.916;8.284;2023-06-22T07:53:48;12.52;;;10.15;;
32096;SDS011;18610;49.916;8.284;2023-06-22T07:56:15;13.82;;;9.93;;
32096;SDS011;18610;49.916;8.284;2023-06-22T07:58:44;12.60;;;9.30;;
32096;SDS011;18610;49.916;8.284;2023-06-22T08:01:12;13.63;;;9.88;;
32096;SDS011;18610;49.916;8.284;2023-06-22T08:03:39;10.65;;;9.30;;
32096;SDS011;18610;49.916;8.284;2023-06-22T08:06:06;12.43;;;9.82;;
32096;SDS011;18610;49.916;8.284;2023-06-22T08:08:34;10.98;;;8.80;;
32096;SDS011;18610;49.916;8.284;2023-06-22T08:11:01;15.85;;;11.57;;
32096;SDS011;18610;49.916;8.284;2023-06-22T08:13:29;11.63;;;9.30;;
32096;SDS011;18610;49.916;8.284;2023-06-22T08:15:55;22.55;;;10.75;;
32096;SDS011;18610;49.916;8.284;2023-06-22T08:18:23;10.63;;;9.23;;
32096;SDS011;18610;49.916;8.284;2023-06-22T08:20:50;14.38;;;10.10;;
32096;SDS011;18610;49.916;8.284;2023-06-22T08:23:17;12.60;;;9.55;;
32096;SDS011;18610;49.916;8.284;2023-06-22T08:25:44;11.65;;;9.45;;
32096;SDS011;18610;49.916;8.284;2023-06-22T08:28:13;12.98;;;9.15;;
32096;SDS011;18610;49.916;8.284;2023-06-22T08:30:40;16.83;;;10.52;;
32096;SDS011;18610;49.916;8.284;2023-06-22T08:33:06;17.13;;;11.25;;
32096;SDS011;18610;49.916;8.284;2023-06-22T08:35:34;14.52;;;10.60;;
32096;SDS011;18610;49.916;8.284;2023-06-22T08:38:01;11.98;;;10.30;;
32096;SDS011;18610;49.916;8.284;2023-06-22T08:40:28;11.40;;;10.20;;
32096;SDS011;18610;49.916;8.284;2023-06-22T08:42:55;11.25;;;10.13;;
32096;SDS011;18610;49.916;8.284;2023-06-22T08:45:22;14.82;;;9.07;;
32096;SDS011;18610;49.916;8.284;2023-06-22T08:47:49;12.38;;;9.93;;
32096;SDS011;18610;49.916;8.284;2023-06-22T08:50:15;13.05;;;10.27;;
32096;SDS011;18610;49.916;8.284;2023-06-22T08:52:44;16.02;;;10.95;;
32096;SDS011;18610;49.916;8.284;2023-06-22T08:55:10;13.32;;;9.73;;
32096;SDS011;18610;49.916;8.284;2023-06-22T08:57:37;13.02;;;10.05;;
32096;SDS011;18610;49.916;8.284;2023-06-22T09:00:05;14.55;;;9.25;;
32096;SDS011;18610;49.916;8.284;2023-06-22T09:02:40;13.10;;;9.55;;
32096;SDS011;18610;49.916;8.284;2023-06-22T09:05:07;11.10;;;9.32;;
32096;SDS011;18610;49.916;8.284;2023-06-22T09:07:35;12.20;;;8.18;;
32096;SDS011;18610;49.916;8.284;2023-06-22T09:10:03;14.52;;;9.93;;
32096;SDS011;18610;49.916;8.284;2023-06-22T09:12:30;12.20;;;10.10;;
32096;SDS011;18610;49.916;8.284;2023-06-22T09:14:58;11.50;;;9.13;;
32096;SDS011;18610;49.916;8.284;2023-06-22T09:17:25;12.95;;;9.50;;
32096;SDS011;18610;49.916;8.284;2023-06-22T09:19:53;13.38;;;9.13;;
32096;SDS011;18610;49.916;8.284;2023-06-22T09:22:20;15.40;;;9.30;;
32096;SDS011;18610;49.916;8.284;2023-06-22T09:24:47;13.88;;;9.45;;
32096;SDS011;18610;49.916;8.284;2023-06-22T09:27:15;14.38;;;8.48;;
32096;SDS011;18610;49.916;8.284;2023-06-22T09:29:41;12.18;;;9.73;;
32096;SDS011;18610;49.916;8.284;2023-06-22T09:32:08;11.30;;;8.77;;
32096;SDS011;18610;49.916;8.284;2023-06-22T09:34:35;11.68;;;8.50;;
32096;SDS011;18610;49.916;8.284;2023-06-22T09:37:02;13.52;;;10.02;;
32096;SDS011;18610;49.916;8.284;2023-06-22T09:39:29;13.57;;;9.60;;
32096;SDS011;18610;49.916;8.284;2023-06-22T09:41:57;14.82;;;8.75;;
32096;SDS011;18610;49.916;8.284;2023-06-22T09:44:25;15.32;;;8.02;;
32096;SDS011;18610;49.916;8.284;2023-06-22T09:46:52;14.68;;;8.30;;
32096;SDS011;18610;49.916;8.284;2023-06-22T09:49:19;11.70;;;8.50;;
32096;SDS011;18610;49.916;8.284;2023-06-22T09:51:45;13.52;;;8.00;;
32096;SDS011;18610;49.916;8.284;2023-06-22T09:54:12;11.65;;;8.02;;
32096;SDS011;18610;49.916;8.284;2023-06-22T09:56:39;11.60;;;8.50;;
32096;SDS011;18610;49.916;8.284;2023-06-22T09:59:06;9.23;;;8.05;;
32096;SDS011;18610;49.916;8.284;2023-06-22T10:01:34;13.68;;;8.52;;
32096;SDS011;18610;49.916;8.284;2023-06-22T10:04:01;10.30;;;8.38;;
32096;SDS011;18610;49.916;8.284;2023-06-22T10:06:28;11.32;;;7.75;;
32096;SDS011;18610;49.916;8.284;2023-06-22T10:08:55;10.27;;;8.32;;
32096;SDS011;18610;49.916;8.284;2023-06-22T10:11:22;10.77;;;8.27;;
32096;SDS011;18610;49.916;8.284;2023-06-22T10:13:54;11.18;;;8.13;;
32096;SDS011;18610;49.916;8.284;2023-06-22T10:16:20;16.20;;;8.00;;
32096;SDS011;18610;49.916;8.284;2023-06-22T10:18:48;10.02;;;7.78;;
32096;SDS011;18610;49.916;8.284;2023-06-22T10:21:15;9.88;;;8.07;;
32096;SDS011;18610;49.916;8.284;2023-06-22T10:23:42;12.75;;;7.30;;
32096;SDS011;18610;49.916;8.284;2023-06-22T10:26:08;11.18;;;8.07;;
32096;SDS011;18610;49.916;8.284;2023-06-22T10:28:35;10.48;;;7.80;;
32096;SDS011;18610;49.916;8.284;2023-06-22T10:31:02;13.80;;;8.75;;
32096;SDS011;18610;49.916;8.284;2023-06-22T10:33:28;9.75;;;7.97;;
32096;SDS011;18610;49.916;8.284;2023-06-22T10:35:56;9.07;;;7.68;;
32096;SDS011;18610;49.916;8.284;2023-06-22T10:38:23;12.40;;;8.02;;
32096;SDS011;18610;49.916;8.284;2023-06-22T10:40:50;13.68;;;8.63;;
32096;SDS011;18610;49.916;8.284;2023-06-22T10:43:16;14.75;;;8.73;;
32096;SDS011;18610;49.916;8.284;2023-06-22T10:45:43;14.15;;;7.82;;
32096;SDS011;18610;49.916;8.284;2023-06-22T10:48:11;18.17;;;7.82;;
32096;SDS011;18610;49.916;8.284;2023-06-22T10:50:38;13.77;;;7.72;;
32096;SDS011;18610;49.916;8.284;2023-06-22T10:53:06;9.98;;;7.05;;
32096;SDS011;18610;49.916;8.284;2023-06-22T10:55:32;12.43;;;7.20;;
32096;SDS011;18610;49.916;8.284;2023-06-22T10:57:59;10.13;;;7.30;;
32096;SDS011;18610;49.916;8.284;2023-06-22T11:00:26;14.45;;;7.57;;
32096;SDS011;18610;49.916;8.284;2023-06-22T11:02:52;10.07;;;8.52;;
32096;SDS011;18610;49.916;8.284;2023-06-22T11:05:19;17.75;;;8.57;;
32096;SDS011;18610;49.916;8.284;2023-06-22T11:07:46;14.93;;;8.05;;
32096;SDS011;18610;49.916;8.284;2023-06-22T11:10:16;14.43;;;10.35;;
32096;SDS011;18610;49.916;8.284;2023-06-22T11:12:42;19.35;;;11.40;;
32096;SDS011;18610;49.916;8.284;2023-06-22T11:15:09;15.68;;;11.13;;
32096;SDS011;18610;49.916;8.284;2023-06-22T11:17:36;11.48;;;9.77;;
32096;SDS011;18610;49.916;8.284;2023-06-22T11:20:03;13.23;;;9.20;;
32096;SDS011;18610;49.916;8.284;2023-06-22T11:22:35;11.50;;;8.57;;
32096;SDS011;18610;49.916;8.284;2023-06-22T11:25:02;14.38;;;9.18;;
32096;SDS011;18610;49.916;8.284;2023-06-22T11:27:31;17.13;;;8.13;;
32096;SDS011;18610;49.916;8.284;2023-06-22T11:29:57;13.38;;;8.73;;
32096;SDS011;18610;49.916;8.284;2023-06-22T11:32:24;14.77;;;7.72;;
32096;SDS011;18610;49.916;8.284;2023-06-22T11:34:51;10.35;;;8.40;;
32096;SDS011;18610;49.916;8.284;2023-06-22T11:37:17;9.95;;;7.40;;
32096;SDS011;18610;49.916;8.284;2023-06-22T11:39:44;9.88;;;7.20;;
32096;SDS011;18610;49.916;8.284;2023-06-22T11:42:11;13.15;;;8.02;;
32096;SDS011;18610;49.916;8.284;2023-06-22T11:44:39;11.48;;;7.80;;
32096;SDS011;18610;49.916;8.284;2023-06-22T11:47:06;11.90;;;8.35;;
32096;SDS011;18610;49.916;8.284;2023-06-22T11:49:32;10.43;;;7.80;;
32096;SDS011;18610;49.916;8.284;2023-06-22T11:51:59;10.73;;;7.30;;
32096;SDS011;18610;49.916;8.284;2023-06-22T11:54:26;13.65;;;7.88;;
32096;SDS011;18610;49.916;8.284;2023-06-22T11:56:52;18.15;;;8.35;;
32096;SDS011;18610;49.916;8.284;2023-06-22T11:59:19;14.07;;;7.75;;
32096;SDS011;18610;49.916;8.284;2023-06-22T12:01:48;11.60;;;8.30;;
32096;SDS011;18610;49.916;8.284;2023-06-22T12:04:16;19.52;;;7.75;;
32096;SDS011;18610;49.916;8.284;2023-06-22T12:06:43;14.35;;;8.75;;
32096;SDS011;18610;49.916;8.284;2023-06-22T12:09:09;12.18;;;8.57;;
32096;SDS011;18610;49.916;8.284;2023-06-22T12:11:38;18.40;;;8.73;;
32096;SDS011;18610;49.916;8.284;2023-06-22T12:14:05;15.65;;;8.60;;
32096;SDS011;18610;49.916;8.284;2023-06-22T12:16:32;11.45;;;8.80;;
32096;SDS011;18610;49.916;8.284;2023-06-22T12:19:00;15.43;;;7.93;;
32096;SDS011;18610;49.916;8.284;2023-06-22T12:21:26;11.43;;;8.07;;
32096;SDS011;18610;49.916;8.284;2023-06-22T12:23:54;17.00;;;8.88;;
32096;SDS011;18610;49.916;8.284;2023-06-22T12:26:21;16.95;;;7.88;;
32096;SDS011;18610;49.916;8.284;2023-06-22T12:28:47;8.95;;;7.32;;
32096;SDS011;18610;49.916;8.284;2023-06-22T12:31:14;12.07;;;7.47;;
32096;SDS011;18610;49.916;8.284;2023-06-22T12:33:41;18.92;;;9.98;;
32096;SDS011;18610;49.916;8.284;2023-06-22T12:36:09;18.38;;;9.40;;
32096;SDS011;18610;49.916;8.284;2023-06-22T12:38:36;20.60;;;9.57;;
32096;SDS011;18610;49.916;8.284;2023-06-22T12:41:02;16.42;;;9.10;;
32096;SDS011;18610;49.916;8.284;2023-06-22T12:43:29;17.95;;;8.45;;
32096;SDS011;18610;49.916;8.284;2023-06-22T12:45:56;13.68;;;7.80;;
32096;SDS011;18610;49.916;8.284;2023-06-22T12:48:22;14.70;;;8.45;;
32096;SDS011;18610;49.916;8.284;2023-06-22T12:50:50;17.60;;;7.38;;
32096;SDS011;18610;49.916;8.284;2023-06-22T12:53:18;13.05;;;6.60;;
32096;SDS011;18610;49.916;8.284;2023-06-22T12:55:44;14.63;;;7.43;;
32096;SDS011;18610;49.916;8.284;2023-06-22T12:58:11;12.85;;;7.15;;
32096;SDS011;18610;49.916;8.284;2023-06-22T13:00:38;14.27;;;7.07;;
32096;SDS011;18610;49.916;8.284;2023-06-22T13:03:08;17.63;;;7.55;;
32096;SDS011;18610;49.916;8.284;2023-06-22T13:05:38;11.30;;;7.57;;
32096;SDS011;18610;49.916;8.284;2023-06-22T13:08:05;15.40;;;7.40;;
32096;SDS011;18610;49.916;8.284;2023-06-22T13:10:33;13.70;;;6.30;;
32096;SDS011;18610;49.916;8.284;2023-06-22T13:12:59;17.48;;;8.25;;
32096;SDS011;18610;49.916;8.284;2023-06-22T13:15:26;21.40;;;8.50;;
32096;SDS011;18610;49.916;8.284;2023-06-22T13:17:53;14.93;;;6.70;;
32096;SDS011;18610;49.916;8.284;2023-06-22T13:20:21;14.07;;;7.95;;
32096;SDS011;18610;49.916;8.284;2023-06-22T13:22:47;13.38;;;7.40;;
32096;SDS011;18610;49.916;8.284;2023-06-22T13:25:14;10.25;;;6.80;;
32096;SDS011;18610;49.916;8.284;2023-06-22T13:27:45;12.75;;;7.55;;
32096;SDS011;18610;49.916;8.284;2023-06-22T13:30:12;15.43;;;6.88;;
32096;SDS011;18610;49.916;8.284;2023-06-22T13:32:39;19.55;;;6.82;;
32096;SDS011;18610;49.916;8.284;2023-06-22T13:35:07;15.50;;;6.10;;
32096;SDS011;18610;49.916;8.284;2023-06-22T13:37:35;14.85;;;5.70;;
32096;SDS011;18610;49.916;8.284;2023-06-22T13:40:01;25.88;;;6.72;;
32096;SDS011;18610;49.916;8.284;2023-06-22T13:42:31;17.20;;;6.47;;
32096;SDS011;18610;49.916;8.284;2023-06-22T13:45:00;16.38;;;5.72;;
32096;SDS011;18610;49.916;8.284;2023-06-22T13:47:27;20.40;;;6.95;;
32096;SDS011;18610;49.916;8.284;2023-06-22T13:49:53;24.90;;;6.22;;
32096;SDS011;18610;49.916;8.284;2023-06-22T13:52:20;20.75;;;6.18;;
32096;SDS011;18610;49.916;8.284;2023-06-22T13:54:47;12.93;;;5.88;;
32096;SDS011;18610;49.916;8.284;2023-06-22T13:57:13;16.60;;;5.75;;
32096;SDS011;18610;49.916;8.284;2023-06-22T13:59:40;16.10;;;6.40;;
32096;SDS011;18610;49.916;8.284;2023-06-22T14:02:08;18.65;;;7.03;;
32096;SDS011;18610;49.916;8.284;2023-06-22T14:04:35;21.73;;;5.97;;
32096;SDS011;18610;49.916;8.284;2023-06-22T14:07:02;20.80;;;6.40;;
32096;SDS011;18610;49.916;8.284;2023-06-22T14:09:29;15.95;;;5.75;;
32096;SDS011;18610;49.916;8.284;2023-06-22T14:11:56;21.00;;;6.00;;
32096;SDS011;18610;49.916;8.284;2023-06-22T14:14:22;23.27;;;7.00;;
32096;SDS011;18610;49.916;8.284;2023-06-22T14:16:49;14.02;;;5.78;;
32096;SDS011;18610;49.916;8.284;2023-06-22T14:19:18;23.08;;;6.35;;
32096;SDS011;18610;49.916;8.284;2023-06-22T14:21:44;23.83;;;7.15;;
32096;SDS011;18610;49.916;8.284;2023-06-22T14:24:11;24.67;;;6.53;;
32096;SDS011;18610;49.916;8.284;2023-06-22T14:26:38;19.52;;;6.40;;
32096;SDS011;18610;49.916;8.284;2023-06-22T14:29:04;17.58;;;7.07;;
32096;SDS011;18610;49.916;8.284;2023-06-22T14:31:31;23.10;;;6.78;;
32096;SDS011;18610;49.916;8.284;2023-06-22T14:33:58;18.10;;;6.53;;
32096;SDS011;18610;49.916;8.284;2023-06-22T14:36:29;15.18;;;6.13;;
32096;SDS011;18610;49.916;8.284;2023-06-22T14:38:55;20.52;;;6.65;;
32096;SDS011;18610;49.916;8.284;2023-06-22T14:41:22;14.48;;;5.50;;